Time;durP1;ratioP1;P1;durP2;ratioP2;P2;SDS_P1;SDS_P2;PMS_P1;PMS_P2;Temp;Humidity;BMP_temperature;BMP_pressure;BME280_temperature;BME280_humidity;BME280_pressure;Samples;Min_cycle;Max_cycle;Signal;HPM_P1;HPM_P2
2022/04/01 00:02:18;;;;;;;6.25;2.90;;;2.60;99.90;;;;;;5055498;28;20041;-90
2022/04/01 00:04:43;;;;;;;10.30;3.35;;;2.60;99.90;;;;;;5054791;28;20025;-90
2022/04/01 00:07:09;;;;;;;5.18;3.00;;;2.50;99.90;;;;;;5055496;28;20044;-90
2022/04/01 00:09:35;;;;;;;4.45;3.33;;;2.30;99.90;;;;;;5054683;28;20053;-89
2022/04/01 00:12:01;;;;;;;4.03;3.30;;;2.30;99.90;;;;;;5055204;28;20061;-92
2022/04/01 00:14:27;;;;;;;5.22;3.25;;;2.30;99.90;;;;;;5055336;28;20029;-89
2022/04/01 00:16:52;;;;;;;5.90;2.90;;;2.50;99.90;;;;;;5055416;28;20029;-90
2022/04/01 00:19:20;;;;;;;7.05;3.30;;;2.40;99.90;;;;;;5055858;28;20029;-90
2022/04/01 00:21:46;;;;;;;4.68;2.88;;;2.30;99.90;;;;;;5054973;28;20045;-90
2022/04/01 00:24:11;;;;;;;6.07;3.00;;;2.50;99.90;;;;;;5055275;28;20037;-90
2022/04/01 00:26:37;;;;;;;4.38;2.90;;;2.50;99.90;;;;;;5055122;28;20511;-91
2022/04/01 00:29:14;;;;;;;5.10;2.90;;;2.60;99.90;;;;;;5052366;28;20118;-91
2022/04/01 00:31:44;;;;;;;4.60;2.70;;;2.50;99.90;;;;;;5055076;28;20484;-90
2022/04/01 00:34:15;;;;;;;3.05;2.75;;;2.40;99.90;;;;;;5054992;28;20155;-90
2022/04/01 00:36:42;;;;;;;4.82;2.83;;;2.30;99.90;;;;;;5055039;28;20114;-90
2022/04/01 00:39:08;;;;;;;4.95;3.15;;;2.40;99.90;;;;;;5054644;28;20048;-90
2022/04/01 00:41:33;;;;;;;6.13;2.92;;;2.40;99.90;;;;;;5054767;28;20056;-90
2022/04/01 00:44:17;;;;;;;5.05;3.38;;;2.40;99.90;;;;;;5054584;28;20036;-89
2022/04/01 00:46:47;;;;;;;4.90;3.13;;;2.60;99.90;;;;;;5055199;28;20032;-89
2022/04/01 00:49:13;;;;;;;4.10;2.70;;;2.60;99.90;;;;;;5054253;28;20039;-89
2022/04/01 00:51:44;;;;;;;4.28;2.90;;;2.60;99.90;;;;;;5051946;28;20025;-88
2022/04/01 00:54:11;;;;;;;4.13;2.95;;;2.70;99.90;;;;;;5054292;28;20025;-88
2022/04/01 00:56:37;;;;;;;3.70;3.30;;;2.60;99.90;;;;;;5053624;28;20096;-89
2022/04/01 00:59:03;;;;;;;3.75;3.08;;;2.40;99.90;;;;;;5053797;28;20036;-86
2022/04/01 01:01:36;;;;;;;4.68;3.58;;;2.40;99.90;;;;;;5054732;28;20067;-88
2022/04/01 01:04:02;;;;;;;5.85;3.70;;;2.40;99.90;;;;;;5053796;28;20040;-89
2022/04/01 01:06:30;;;;;;;3.90;3.50;;;2.30;99.90;;;;;;5053413;28;20460;-88
2022/04/01 01:08:57;;;;;;;4.25;3.67;;;2.40;99.90;;;;;;5053650;28;20078;-88
2022/04/01 01:11:24;;;;;;;4.65;3.58;;;2.40;99.90;;;;;;5053899;28;20031;-90
2022/04/01 01:13:51;;;;;;;7.60;5.03;;;2.30;99.90;;;;;;5053902;28;20032;-90
2022/04/01 01:16:17;;;;;;;6.55;4.88;;;2.30;99.90;;;;;;5053090;28;20427;-87
2022/04/01 01:18:43;;;;;;;7.03;4.45;;;2.20;99.90;;;;;;5053922;28;20048;-88
2022/04/01 01:21:09;;;;;;;6.70;5.07;;;2.20;99.90;;;;;;5053382;28;20108;-89
2022/04/01 01:23:36;;;;;;;5.22;4.35;;;2.10;99.90;;;;;;5053410;28;20044;-88
2022/04/01 01:26:03;;;;;;;6.15;5.05;;;2.10;99.90;;;;;;5053261;28;20028;-87
2022/04/01 01:28:29;;;;;;;5.57;4.57;;;2.20;99.90;;;;;;5052915;28;20048;-88
2022/04/01 01:30:55;;;;;;;6.00;4.35;;;2.10;99.90;;;;;;5053258;28;20512;-89
2022/04/01 01:33:24;;;;;;;5.35;4.35;;;2.10;99.90;;;;;;5052667;28;20029;-89
2022/04/01 01:35:49;;;;;;;5.65;4.43;;;2.20;99.90;;;;;;5053524;28;20129;-89
2022/04/01 01:38:19;;;;;;;5.38;4.20;;;2.10;99.90;;;;;;5053444;28;20526;-89
2022/04/01 01:40:46;;;;;;;4.90;4.40;;;2.10;99.90;;;;;;5053424;28;20099;-89
2022/04/01 01:43:11;;;;;;;5.45;4.22;;;2.10;99.90;;;;;;5053110;28;20053;-89
2022/04/01 01:45:37;;;;;;;5.00;4.00;;;2.00;99.90;;;;;;5053064;28;20425;-89
2022/04/01 01:48:03;;;;;;;6.20;4.10;;;1.90;99.90;;;;;;5053242;28;20036;-89
2022/04/01 01:55:57;;;;;;;5.22;3.80;;;2.10;99.90;;;;;;5052854;28;20106;-88
2022/04/01 01:58:23;;;;;;;4.32;3.50;;;1.90;99.90;;;;;;5052091;28;20050;-87
2022/04/01 02:00:49;;;;;;;4.30;3.70;;;2.00;99.90;;;;;;5052782;28;20085;-87
2022/04/01 02:03:16;;;;;;;5.78;4.30;;;2.00;99.90;;;;;;5052798;28;20041;-88
2022/04/01 02:05:41;;;;;;;5.72;4.25;;;1.80;99.90;;;;;;5052910;28;20028;-87
2022/04/01 02:08:08;;;;;;;4.25;3.70;;;1.70;99.90;;;;;;5052361;28;20056;-87
2022/04/01 02:10:33;;;;;;;6.63;3.78;;;1.70;99.90;;;;;;5052475;28;20116;-87
2022/04/01 02:12:59;;;;;;;3.72;3.03;;;1.80;99.90;;;;;;5052240;28;20538;-87
2022/04/01 02:15:25;;;;;;;4.25;3.15;;;1.90;99.90;;;;;;5052512;28;20037;-87
2022/04/01 02:17:51;;;;;;;3.95;3.55;;;1.90;99.90;;;;;;5052194;28;20025;-87
2022/04/01 02:20:17;;;;;;;4.85;3.50;;;2.00;99.90;;;;;;5051947;28;20087;-87
2022/04/01 02:22:44;;;;;;;4.97;3.50;;;1.90;99.90;;;;;;5052276;28;20044;-89
2022/04/01 02:25:11;;;;;;;4.47;3.55;;;1.90;99.90;;;;;;5052379;28;20366;-83
2022/04/01 02:27:37;;;;;;;5.63;3.85;;;1.90;99.90;;;;;;5052263;28;20025;-85
2022/04/01 02:30:10;;;;;;;4.78;3.58;;;1.80;99.90;;;;;;5051825;28;20496;-85
2022/04/01 02:32:39;;;;;;;6.03;3.77;;;1.70;99.90;;;;;;5051926;28;20025;-85
2022/04/01 02:35:06;;;;;;;4.28;3.75;;;1.70;99.90;;;;;;5051974;28;20033;-85
2022/04/01 02:37:31;;;;;;;5.50;3.88;;;1.80;99.90;;;;;;5052052;28;20116;-85
2022/04/01 02:39:57;;;;;;;4.07;3.13;;;1.90;99.90;;;;;;5052058;28;20111;-85
2022/04/01 02:42:23;;;;;;;4.22;3.33;;;1.90;99.90;;;;;;5051614;28;20060;-85
2022/04/01 02:44:48;;;;;;;4.30;3.60;;;1.90;99.90;;;;;;5052172;28;20112;-86
2022/04/01 02:47:14;;;;;;;4.80;3.35;;;1.80;99.90;;;;;;5051806;28;20062;-87
2022/04/01 02:49:40;;;;;;;4.60;3.83;;;1.90;99.90;;;;;;5049304;28;20017;-86
2022/04/01 02:52:06;;;;;;;4.70;3.17;;;2.00;99.90;;;;;;5052062;28;20033;-86
2022/04/01 02:54:33;;;;;;;4.90;3.30;;;2.00;99.90;;;;;;5051898;28;20552;-86
2022/04/01 02:56:59;;;;;;;6.07;3.40;;;2.20;99.90;;;;;;5051753;28;20025;-86
2022/04/01 02:59:25;;;;;;;4.07;3.67;;;2.30;99.90;;;;;;5051355;28;20044;-86
2022/04/01 03:01:51;;;;;;;4.60;3.60;;;2.10;99.90;;;;;;5051641;28;20037;-87
2022/04/01 03:04:17;;;;;;;4.60;3.97;;;2.10;99.90;;;;;;5051493;28;20025;-87
2022/04/01 03:06:43;;;;;;;6.38;4.32;;;1.90;99.90;;;;;;5051989;28;20476;-87
2022/04/01 03:09:09;;;;;;;5.20;3.90;;;1.80;99.90;;;;;;5051257;28;20091;-87
2022/04/01 03:11:38;;;;;;;5.25;3.88;;;1.90;99.90;;;;;;5052083;28;20040;-86
2022/04/01 03:14:05;;;;;;;4.10;3.70;;;1.90;99.90;;;;;;5051903;28;20094;-86
2022/04/01 03:16:31;;;;;;;5.43;3.88;;;1.80;99.90;;;;;;5051648;28;20029;-87
2022/04/01 03:18:59;;;;;;;4.90;4.00;;;2.00;99.90;;;;;;5051789;28;20527;-85
2022/04/01 03:21:25;;;;;;;4.68;4.18;;;1.90;99.90;;;;;;5051784;28;20029;-84
2022/04/01 03:23:51;;;;;;;5.53;4.25;;;1.90;99.90;;;;;;5051336;28;20041;-85
2022/04/01 03:26:17;;;;;;;6.57;4.57;;;1.60;99.90;;;;;;5051738;28;20033;-84
2022/04/01 03:28:43;;;;;;;5.57;3.92;;;1.60;99.90;;;;;;5051416;28;20400;-83
2022/04/01 03:31:09;;;;;;;5.70;3.97;;;1.60;99.90;;;;;;5051446;28;20107;-84
2022/04/01 03:33:37;;;;;;;4.50;3.58;;;1.70;99.90;;;;;;5051624;28;20037;-85
2022/04/01 03:36:03;;;;;;;7.00;4.07;;;1.60;99.90;;;;;;5051467;28;20041;-84
2022/04/01 03:38:30;;;;;;;5.43;3.95;;;1.60;99.90;;;;;;5051433;28;20445;-83
2022/04/01 03:40:57;;;;;;;7.88;4.20;;;1.60;99.90;;;;;;5048985;28;20115;-84
2022/04/01 03:43:24;;;;;;;7.25;3.80;;;1.60;99.90;;;;;;5051529;28;20036;-85
2022/04/01 03:45:54;;;;;;;5.32;4.03;;;1.70;99.90;;;;;;5051350;28;20068;-84
2022/04/01 03:48:28;;;;;;;5.38;4.22;;;1.50;99.90;;;;;;5051354;28;20087;-84
2022/04/01 03:50:58;;;;;;;6.15;3.78;;;1.50;99.90;;;;;;5051036;28;20087;-84
2022/04/01 03:53:29;;;;;;;5.93;4.05;;;1.50;99.90;;;;;;5051191;28;20033;-84
2022/04/01 03:55:56;;;;;;;5.03;4.30;;;1.70;99.90;;;;;;5051901;28;20037;-83
2022/04/01 03:58:30;;;;;;;5.05;4.20;;;1.80;99.90;;;;;;5054686;28;20028;-82
2022/04/01 04:01:01;;;;;;;6.28;4.40;;;1.60;99.90;;;;;;5053489;28;20112;-82
2022/04/01 04:03:29;;;;;;;5.90;3.90;;;1.50;99.90;;;;;;5054786;28;20473;-83
2022/04/01 04:05:57;;;;;;;5.45;3.75;;;1.50;99.90;;;;;;5054753;28;20029;-82
2022/04/01 04:08:23;;;;;;;4.88;4.10;;;1.50;99.90;;;;;;5054861;28;20037;-82
2022/04/01 04:10:53;;;;;;;5.45;3.65;;;1.60;99.90;;;;;;5054533;28;20037;-82
2022/04/01 04:13:20;;;;;;;4.97;3.95;;;1.60;99.90;;;;;;5052797;28;20025;-82
2022/04/01 04:16:00;;;;;;;3.75;3.03;;;1.70;99.90;;;;;;5054653;28;20136;-83
2022/04/01 04:18:34;;;;;;;6.28;3.45;;;1.80;99.90;;;;;;5054355;28;20487;-83
2022/04/01 04:21:10;;;;;;;4.18;3.42;;;1.80;99.90;;;;;;5054186;28;20495;-86
2022/04/01 04:23:47;;;;;;;5.93;3.10;;;1.70;99.90;;;;;;5055098;28;20427;-79
2022/04/01 04:26:30;;;;;;;5.13;3.25;;;1.70;99.90;;;;;;5054782;28;20037;-81
2022/04/01 04:29:01;;;;;;;3.47;2.80;;;1.70;99.90;;;;;;5054455;28;20029;-81
2022/04/01 04:31:33;;;;;;;5.07;3.60;;;1.80;99.90;;;;;;5054068;28;20031;-81
2022/04/01 04:34:03;;;;;;;4.57;3.10;;;1.80;99.90;;;;;;5054438;28;20017;-82
2022/04/01 04:36:38;;;;;;;3.50;3.20;;;1.60;99.90;;;;;;5053545;28;20025;-79
2022/04/01 04:39:16;;;;;;;5.78;3.25;;;1.50;99.90;;;;;;5053808;28;20025;-83
2022/04/01 04:41:43;;;;;;;5.13;2.63;;;1.50;99.90;;;;;;5054266;28;20044;-82
2022/04/01 04:44:11;;;;;;;4.60;3.03;;;1.70;99.90;;;;;;5054412;28;20047;-83
2022/04/01 04:46:41;;;;;;;4.22;3.05;;;1.80;99.90;;;;;;5051276;28;20531;-82
2022/04/01 04:49:08;;;;;;;2.90;2.50;;;1.80;99.90;;;;;;5054038;28;20040;-81
2022/04/01 04:51:35;;;;;;;3.53;2.42;;;1.80;99.90;;;;;;5053703;28;20028;-81
2022/04/01 04:54:01;;;;;;;3.47;2.92;;;1.80;99.90;;;;;;5053677;28;20033;-81
2022/04/01 04:56:27;;;;;;;5.63;2.67;;;1.80;99.90;;;;;;5054068;28;20025;-81
2022/04/01 04:58:55;;;;;;;4.55;2.40;;;1.80;99.90;;;;;;5053923;28;20029;-81
2022/04/01 05:01:56;;;;;;;7.20;2.80;;;1.90;99.90;;;;;;5054167;28;20028;-81
2022/04/01 05:04:53;;;;;;;3.35;2.78;;;1.70;99.90;;;;;;5053199;28;20033;-78
2022/04/01 05:07:37;;;;;;;5.15;3.70;;;1.70;99.90;;;;;;5053344;28;20106;-80
2022/04/01 05:10:09;;;;;;;4.57;2.63;;;1.80;99.90;;;;;;5052330;28;20138;-82
2022/04/01 05:12:49;;;;;;;7.22;2.63;;;1.90;99.90;;;;;;5052614;28;20486;-82
2022/04/01 05:15:29;;;;;;;3.67;2.40;;;1.80;99.90;;;;;;5053823;28;20037;-82
2022/04/01 05:18:08;;;;;;;4.25;2.65;;;1.70;99.90;;;;;;5050585;28;20487;-82
2022/04/01 05:20:36;;;;;;;3.22;2.70;;;1.50;99.90;;;;;;5050774;28;20029;-82
2022/04/01 05:23:20;;;;;;;4.75;2.45;;;1.50;99.90;;;;;;5051209;28;20039;-82
2022/04/01 05:25:58;;;;;;;5.75;2.60;;;1.40;99.90;;;;;;5051166;28;20387;-83
2022/04/01 05:28:28;;;;;;;4.82;2.70;;;1.40;99.90;;;;;;5053262;28;20025;-82
2022/04/01 05:31:10;;;;;;;4.88;2.47;;;1.50;99.90;;;;;;5052943;28;20032;-82
2022/04/01 05:33:48;;;;;;;5.47;2.60;;;1.40;99.90;;;;;;5052853;28;20033;-83
2022/04/01 05:36:16;;;;;;;5.25;2.10;;;1.60;99.90;;;;;;5051954;28;20032;-90
2022/04/01 05:38:43;;;;;;;4.78;2.30;;;1.60;99.90;;;;;;5049219;28;20025;-79
2022/04/01 05:41:10;;;;;;;4.97;2.67;;;1.60;99.90;;;;;;5053233;28;20029;-77
2022/04/01 05:43:38;;;;;;;3.15;2.15;;;1.50;99.90;;;;;;5051136;28;20365;-77
2022/04/01 05:46:04;;;;;;;4.25;2.33;;;1.60;99.90;;;;;;5052574;28;20674;-77
2022/04/01 05:48:32;;;;;;;5.85;2.55;;;1.50;99.90;;;;;;5052414;28;20025;-77
2022/04/01 05:50:58;;;;;;;7.80;2.70;;;1.50;99.90;;;;;;5052340;28;20488;-78
2022/04/01 05:53:25;;;;;;;6.05;2.72;;;1.50;99.90;;;;;;5052179;28;20045;-80
2022/04/01 05:55:53;;;;;;;3.40;2.10;;;1.60;99.90;;;;;;5052404;28;20100;-81
2022/04/01 05:58:19;;;;;;;3.17;2.20;;;1.70;99.90;;;;;;5051868;28;20515;-81
2022/04/01 06:01:10;;;;;;;4.25;2.05;;;1.80;99.90;;;;;;5052304;28;20116;-81
2022/04/01 06:03:54;;;;;;;3.45;1.90;;;2.00;99.90;;;;;;5052108;28;20080;-82
2022/04/01 06:06:32;;;;;;;6.20;2.15;;;1.90;99.90;;;;;;5052138;28;20510;-81
2022/04/01 06:09:14;;;;;;;4.85;2.38;;;2.00;99.90;;;;;;5051573;28;20025;-83
2022/04/01 06:12:09;;;;;;;4.07;1.90;;;2.00;99.90;;;;;;5052025;28;20048;-80
2022/04/01 06:15:06;;;;;;;2.58;1.92;;;2.00;99.90;;;;;;5052335;28;20045;-80
2022/04/01 06:18:03;;;;;;;4.13;1.92;;;2.00;99.90;;;;;;5051098;28;20514;-82
2022/04/01 06:20:31;;;;;;;4.18;2.00;;;2.00;99.90;;;;;;5051861;28;20451;-82
2022/04/01 06:23:06;;;;;;;6.20;2.17;;;1.80;99.90;;;;;;5049454;28;20029;-85
2022/04/01 06:25:39;;;;;;;5.78;2.08;;;1.90;99.90;;;;;;5049161;28;20037;-83
2022/04/01 06:28:24;;;;;;;3.40;2.20;;;2.00;99.90;;;;;;5049878;28;20041;-84
2022/04/01 06:30:51;;;;;;;4.90;2.05;;;1.90;99.90;;;;;;5050142;28;20317;-84
2022/04/01 06:33:47;;;;;;;4.35;2.08;;;1.90;99.90;;;;;;5051082;28;20120;-84
2022/04/01 06:36:15;;;;;;;3.83;1.85;;;2.00;99.90;;;;;;5041740;28;20115;-83
2022/04/01 06:39:17;;;;;;;3.53;2.25;;;2.00;99.90;;;;;;5051787;28;20499;-83
2022/04/01 06:41:46;;;;;;;3.50;1.90;;;2.20;99.90;;;;;;5040617;28;20029;-86
2022/04/01 06:44:12;;;;;;;4.47;2.30;;;2.40;99.90;;;;;;5049733;28;20021;-81
2022/04/01 06:46:38;;;;;;;3.70;1.83;;;2.40;99.90;;;;;;5052306;28;20021;-81
2022/04/01 06:49:08;;;;;;;5.13;2.25;;;2.30;99.90;;;;;;5051343;28;20516;-83
2022/04/01 06:51:38;;;;;;;6.07;2.55;;;2.10;99.90;;;;;;5051142;28;20492;-83
2022/04/01 06:54:04;;;;;;;4.70;2.05;;;2.10;99.90;;;;;;5052742;28;20116;-83
2022/04/01 06:56:30;;;;;;;5.15;2.58;;;2.10;99.90;;;;;;5052966;28;20029;-83
2022/04/01 06:58:56;;;;;;;7.05;2.45;;;2.10;99.90;;;;;;5053174;28;20024;-81
2022/04/01 07:01:22;;;;;;;5.07;2.63;;;2.10;99.90;;;;;;5052556;28;20476;-82
2022/04/01 07:03:47;;;;;;;4.90;2.38;;;2.00;99.90;;;;;;5053921;28;20101;-82
2022/04/01 07:06:13;;;;;;;5.38;2.55;;;1.90;99.90;;;;;;5053253;28;20563;-82
2022/04/01 07:08:39;;;;;;;6.18;2.22;;;1.90;99.90;;;;;;5052880;28;20468;-82
2022/04/01 07:11:04;;;;;;;3.70;2.30;;;2.10;99.90;;;;;;5052727;28;20060;-82
2022/04/01 07:13:30;;;;;;;2.88;2.10;;;2.20;99.90;;;;;;5052702;28;20029;-80
2022/04/01 07:15:56;;;;;;;6.20;2.42;;;2.10;99.90;;;;;;5052982;28;20025;-81
2022/04/01 07:18:22;;;;;;;4.38;2.60;;;2.20;99.90;;;;;;5052923;28;20025;-80
2022/04/01 07:20:48;;;;;;;3.50;2.30;;;2.20;99.90;;;;;;5052322;28;20530;-81
2022/04/01 07:23:15;;;;;;;3.78;2.13;;;2.20;99.90;;;;;;5052819;28;20037;-80
2022/04/01 07:25:40;;;;;;;4.40;2.40;;;2.20;99.90;;;;;;5053065;28;20407;-80
2022/04/01 07:28:09;;;;;;;4.53;2.40;;;2.30;99.90;;;;;;5053019;28;20036;-80
2022/04/01 07:30:34;;;;;;;3.35;1.98;;;2.30;99.90;;;;;;5053279;28;20025;-80
2022/04/01 07:33:00;;;;;;;4.63;2.30;;;2.30;99.90;;;;;;5056710;28;20396;-81
2022/04/01 07:35:27;;;;;;;3.47;2.05;;;2.20;99.90;;;;;;5056691;28;20021;-81
2022/04/01 07:37:53;;;;;;;4.40;2.08;;;2.20;99.90;;;;;;5057017;28;20029;-81
2022/04/01 07:40:19;;;;;;;4.78;1.70;;;2.20;99.90;;;;;;5056617;28;20033;-81
2022/04/01 07:42:45;;;;;;;4.03;2.13;;;2.50;99.90;;;;;;5057569;28;20037;-81
2022/04/01 07:45:11;;;;;;;3.85;1.90;;;2.60;99.90;;;;;;5056436;28;20029;-80
2022/04/01 07:47:37;;;;;;;4.95;2.00;;;2.30;99.90;;;;;;5056306;28;20028;-80
2022/04/01 07:50:05;;;;;;;3.20;1.58;;;2.30;99.90;;;;;;5056241;28;20078;-81
2022/04/01 07:52:32;;;;;;;2.70;1.80;;;2.40;99.90;;;;;;5056299;28;20040;-79
2022/04/01 07:54:58;;;;;;;4.78;1.80;;;2.40;99.90;;;;;;5055687;28;20040;-81
2022/04/01 07:57:24;;;;;;;3.85;1.60;;;2.40;99.90;;;;;;5056175;28;20017;-81
2022/04/01 07:59:50;;;;;;;3.42;1.70;;;2.50;99.90;;;;;;5056444;28;20108;-81
2022/04/01 08:02:17;;;;;;;4.72;1.88;;;2.60;99.90;;;;;;5056030;28;20115;-80
2022/04/01 08:04:42;;;;;;;3.05;1.33;;;2.80;99.90;;;;;;5056194;28;20025;-82
2022/04/01 08:07:08;;;;;;;5.40;1.00;;;2.80;99.90;;;;;;5055614;28;20424;-81
2022/04/01 08:09:35;;;;;;;2.25;1.10;;;2.80;99.90;;;;;;5055773;28;20051;-80
2022/04/01 08:12:01;;;;;;;2.65;0.95;;;2.90;99.90;;;;;;5055660;28;20072;-82
2022/04/01 08:14:27;;;;;;;3.72;1.15;;;3.00;99.90;;;;;;5055321;28;20392;-82
2022/04/01 08:16:53;;;;;;;5.40;1.05;;;3.00;99.90;;;;;;5055511;28;20464;-83
2022/04/01 08:19:19;;;;;;;1.73;0.60;;;2.90;99.60;;;;;;5055642;28;20086;-83
2022/04/01 08:21:45;;;;;;;1.83;0.60;;;2.80;99.50;;;;;;5055456;28;20037;-83
2022/04/01 08:24:11;;;;;;;3.08;0.70;;;2.70;99.90;;;;;;5054072;28;20037;-79
2022/04/01 08:26:37;;;;;;;3.03;1.20;;;2.80;99.90;;;;;;5054169;28;20025;-82
2022/04/01 08:29:03;;;;;;;3.97;0.77;;;2.70;99.80;;;;;;5054467;28;20059;-82
2022/04/01 08:31:30;;;;;;;2.55;0.88;;;2.70;99.70;;;;;;5054039;28;20028;-82
2022/04/01 08:33:56;;;;;;;5.00;1.00;;;2.80;99.80;;;;;;5054462;28;20048;-82
2022/04/01 08:36:22;;;;;;;2.88;0.60;;;2.90;99.40;;;;;;5053985;28;20029;-86
2022/04/01 08:38:48;;;;;;;4.68;0.82;;;2.90;99.30;;;;;;5055451;28;20055;-87
2022/04/01 08:41:20;;;;;;;1.70;0.52;;;3.00;99.30;;;;;;5054259;28;20044;-86
2022/04/01 08:43:47;;;;;;;2.47;0.73;;;3.00;99.00;;;;;;5054001;28;20114;-88
2022/04/01 08:46:14;;;;;;;2.58;0.85;;;3.10;98.90;;;;;;5054243;28;20547;-87
2022/04/01 08:48:41;;;;;;;1.75;0.63;;;3.30;98.70;;;;;;5053988;28;20496;-88
2022/04/01 08:51:07;;;;;;;1.17;0.65;;;3.50;98.10;;;;;;5053862;28;20091;-85
2022/04/01 08:53:41;;;;;;;3.45;0.40;;;3.70;97.90;;;;;;5053635;28;20040;-85
2022/04/01 08:56:08;;;;;;;1.88;0.45;;;3.70;96.50;;;;;;5051330;28;20025;-81
2022/04/01 08:58:34;;;;;;;1.08;0.40;;;3.60;95.90;;;;;;5054032;28;20083;-81
2022/04/01 09:01:02;;;;;;;3.63;1.00;;;3.60;96.40;;;;;;5053430;28;20025;-82
2022/04/01 09:03:28;;;;;;;1.85;0.50;;;3.70;96.90;;;;;;5053830;28;20040;-82
2022/04/01 09:06:01;;;;;;;1.30;0.70;;;3.60;95.70;;;;;;5053142;28;20028;-81
2022/04/01 09:08:30;;;;;;;2.13;0.63;;;3.50;96.10;;;;;;5053329;28;20501;-80
2022/04/01 09:10:57;;;;;;;4.35;0.80;;;3.50;96.30;;;;;;5053194;28;20454;-83
2022/04/01 09:13:26;;;;;;;3.33;1.00;;;3.60;96.90;;;;;;5053120;28;20480;-83
2022/04/01 09:15:52;;;;;;;3.30;0.85;;;3.90;97.50;;;;;;5053564;28;20395;-82
2022/04/01 09:18:41;;;;;;;4.03;1.00;;;4.20;97.60;;;;;;5053056;28;20029;-83
2022/04/01 09:21:08;;;;;;;4.40;1.10;;;4.30;97.50;;;;;;5052754;28;20025;-81
2022/04/01 09:23:35;;;;;;;2.55;1.02;;;4.30;96.20;;;;;;5053134;28;20040;-81
2022/04/01 09:26:02;;;;;;;1.95;1.10;;;4.20;96.20;;;;;;5053086;28;20108;-82
2022/04/01 09:28:30;;;;;;;4.90;1.15;;;4.00;96.60;;;;;;5052895;28;20469;-81
2022/04/01 09:31:07;;;;;;;4.93;1.40;;;4.00;96.80;;;;;;5052740;28;20029;-81
2022/04/01 09:33:43;;;;;;;3.50;1.40;;;4.00;97.50;;;;;;5051769;28;20037;-82
2022/04/01 09:36:14;;;;;;;2.38;1.10;;;4.10;97.80;;;;;;5052683;28;20028;-80
2022/04/01 09:39:10;;;;;;;4.18;1.00;;;4.20;97.30;;;;;;5050132;28;20025;-86
2022/04/01 09:41:47;;;;;;;2.00;1.33;;;4.40;97.40;;;;;;5052509;28;20078;-87
2022/04/01 09:44:36;;;;;;;2.28;1.23;;;4.40;97.60;;;;;;5053036;28;20087;-88
2022/04/01 09:47:04;;;;;;;3.08;1.38;;;4.30;98.00;;;;;;5052933;28;20033;-86
2022/04/01 09:49:42;;;;;;;3.70;1.45;;;4.20;97.50;;;;;;5052468;28;20451;-85
2022/04/01 09:52:10;;;;;;;4.15;1.67;;;4.00;98.10;;;;;;5052373;28;20033;-85
2022/04/01 09:55:03;;;;;;;4.40;1.27;;;4.00;98.00;;;;;;5052073;28;20480;-83
2022/04/01 09:57:28;;;;;;;5.40;1.83;;;4.20;98.80;;;;;;5049842;28;20392;-83
2022/04/01 09:59:54;;;;;;;3.33;1.40;;;4.20;97.10;;;;;;5051809;28;20112;-83
2022/04/01 10:02:20;;;;;;;4.38;1.98;;;4.10;97.40;;;;;;5051282;28;20043;-84
2022/04/01 10:04:50;;;;;;;3.97;1.77;;;4.30;97.60;;;;;;5050760;28;20029;-83
2022/04/01 10:07:16;;;;;;;3.97;1.70;;;4.40;98.00;;;;;;5050186;28;20587;-83
2022/04/01 10:09:43;;;;;;;7.10;2.30;;;4.60;98.20;;;;;;5049806;28;20392;-83
2022/04/01 10:12:16;;;;;;;4.78;2.22;;;4.60;98.10;;;;;;5050223;28;20033;-83
2022/04/01 10:14:43;;;;;;;8.32;2.47;;;4.70;97.80;;;;;;5050278;28;20032;-83
2022/04/01 10:17:11;;;;;;;3.28;2.22;;;4.60;96.70;;;;;;5051408;28;20469;-83
2022/04/01 10:19:40;;;;;;;5.68;2.30;;;4.50;96.80;;;;;;5049731;28;20158;-83
2022/04/01 10:22:06;;;;;;;5.57;2.53;;;4.60;96.90;;;;;;5050885;28;20029;-89
2022/04/01 10:24:43;;;;;;;5.63;2.15;;;4.50;95.90;;;;;;5052298;28;20032;-91
2022/04/01 10:27:32;;;;;;;5.90;2.90;;;4.40;95.20;;;;;;5050380;28;20036;-86
2022/04/01 10:29:58;;;;;;;3.85;2.50;;;4.30;96.50;;;;;;5051962;28;20033;-87
2022/04/01 10:32:27;;;;;;;3.58;2.33;;;4.40;95.80;;;;;;5052026;28;20025;-89
2022/04/01 10:34:58;;;;;;;5.78;2.70;;;4.30;95.50;;;;;;5052536;28;20380;-86
2022/04/01 10:37:26;;;;;;;5.53;2.40;;;4.20;95.60;;;;;;5052692;28;20028;-82
2022/04/01 10:39:55;;;;;;;5.38;2.55;;;4.30;96.10;;;;;;5051725;28;20459;-87
2022/04/01 10:42:36;;;;;;;3.88;2.72;;;4.30;95.90;;;;;;5052051;28;20021;-89
2022/04/01 10:45:26;;;;;;;6.35;2.85;;;4.40;96.60;;;;;;5049161;28;20032;-85
2022/04/01 10:53:51;;;;;;;8.73;2.85;;;4.20;95.40;;;;;;5052035;28;20048;-83
2022/04/01 10:56:22;;;;;;;4.63;2.40;;;4.00;96.20;;;;;;5051183;28;20029;-82
2022/04/01 10:59:00;;;;;;;4.78;2.67;;;4.00;96.80;;;;;;5051461;28;20549;-84
2022/04/01 11:01:26;;;;;;;3.17;2.35;;;4.10;97.60;;;;;;5051674;28;20108;-80
2022/04/01 11:03:52;;;;;;;6.10;3.10;;;4.20;96.70;;;;;;5051804;28;20045;-83
2022/04/01 11:06:26;;;;;;;5.93;2.85;;;4.30;96.60;;;;;;5052624;28;20052;-80
2022/04/01 11:08:55;;;;;;;3.70;2.42;;;4.40;95.10;;;;;;5056619;28;20031;-93
2022/04/01 11:11:21;;;;;;;4.97;2.85;;;4.40;95.00;;;;;;5057449;28;20064;-94
2022/04/01 11:14:06;;;;;;;3.78;2.47;;;4.30;94.90;;;;;;5056166;28;20472;-94
2022/04/01 11:16:50;;;;;;;4.32;2.65;;;4.20;95.00;;;;;;5056850;28;20032;-93
2022/04/01 11:19:17;;;;;;;4.85;2.55;;;4.30;95.50;;;;;;5056429;28;20036;-93
2022/04/01 11:21:46;;;;;;;9.07;2.97;;;4.40;96.00;;;;;;5056679;28;20090;-93
2022/04/01 11:24:38;;;;;;;5.22;2.75;;;4.70;95.90;;;;;;5056539;28;20028;-93
2022/04/01 11:27:22;;;;;;;5.90;2.97;;;4.80;94.20;;;;;;5055762;28;20116;-93
2022/04/01 11:30:03;;;;;;;6.88;3.15;;;4.70;94.50;;;;;;5056358;28;20480;-92
2022/04/01 11:32:28;;;;;;;7.43;2.97;;;4.80;94.40;;;;;;5055813;28;20071;-92
2022/04/01 11:34:55;;;;;;;6.57;3.33;;;4.80;94.40;;;;;;5055964;28;20060;-92
2022/04/01 11:37:21;;;;;;;7.63;3.67;;;4.60;94.80;;;;;;5055694;28;20392;-91
2022/04/01 11:39:47;;;;;;;5.90;3.03;;;4.50;95.60;;;;;;5056401;28;20115;-92
2022/04/01 11:42:13;;;;;;;7.65;3.67;;;4.50;95.90;;;;;;5055921;28;20394;-93
2022/04/01 11:44:52;;;;;;;5.65;3.35;;;4.60;96.30;;;;;;5056128;28;20044;-93
2022/04/01 11:47:27;;;;;;;7.88;3.35;;;4.60;95.50;;;;;;5056477;28;20025;-93
2022/04/01 11:50:06;;;;;;;6.60;3.72;;;4.40;96.10;;;;;;5056465;28;20083;-94
2022/04/01 11:52:38;;;;;;;7.22;3.60;;;4.30;95.60;;;;;;5055200;28;20063;-88
2022/04/01 11:55:10;;;;;;;7.85;3.60;;;4.40;95.80;;;;;;5055347;28;20086;-88
2022/04/01 11:57:36;;;;;;;10.73;4.13;;;4.50;95.10;;;;;;5054809;28;20021;-87
2022/04/01 12:00:12;;;;;;;6.53;3.70;;;4.40;94.90;;;;;;5054403;28;20382;-88
2022/04/01 12:02:39;;;;;;;8.95;4.10;;;4.50;95.30;;;;;;5053889;28;20028;-88
2022/04/01 12:05:05;;;;;;;5.85;4.18;;;4.70;95.60;;;;;;5054386;28;20037;-88
2022/04/01 12:10:24;;;;;;;4.60;3.10;;;4.80;95.90;;;;;;5054474;28;20286;-87
2022/04/01 12:12:56;;;;;;;5.70;4.07;;;4.90;95.90;;;;;;5052911;28;20043;-88
2022/04/01 12:15:38;;;;;;;7.20;4.38;;;5.10;95.20;;;;;;5053795;28;20028;-87
2022/04/01 12:18:07;;;;;;;7.78;3.67;;;5.00;94.60;;;;;;5053355;28;20561;-87
2022/04/01 12:20:45;;;;;;;6.95;3.60;;;5.00;94.90;;;;;;5053126;28;20021;-87
2022/04/01 12:23:12;;;;;;;8.45;4.40;;;4.90;94.90;;;;;;5051800;28;20056;-87
2022/04/01 12:25:40;;;;;;;6.50;4.00;;;4.90;94.80;;;;;;5054968;28;20028;-85
2022/04/01 12:28:12;;;;;;;6.50;3.63;;;4.80;93.90;;;;;;5053787;28;20037;-86
2022/04/01 12:30:39;;;;;;;5.53;3.30;;;4.80;94.60;;;;;;5054170;28;20129;-86
2022/04/01 12:33:17;;;;;;;9.13;3.80;;;4.90;94.20;;;;;;5054259;28;20119;-86
2022/04/01 12:35:56;;;;;;;5.95;3.78;;;5.10;94.40;;;;;;5054097;28;20468;-84
2022/04/01 12:38:23;;;;;;;8.43;3.63;;;5.30;93.30;;;;;;5054156;28;20377;-84
2022/04/01 12:41:11;;;;;;;8.50;3.63;;;5.20;92.70;;;;;;5053848;28;20025;-85
2022/04/01 12:43:41;;;;;;;6.28;4.22;;;5.30;92.90;;;;;;5050697;28;20090;-89
2022/04/01 12:46:08;;;;;;;7.00;3.60;;;5.20;92.40;;;;;;5054556;28;20025;-87
2022/04/01 12:48:51;;;;;;;6.35;3.58;;;5.00;91.40;;;;;;5054775;28;20020;-90
2022/04/01 12:51:24;;;;;;;6.97;3.75;;;4.90;92.30;;;;;;5054295;28;20036;-89
2022/04/01 12:54:12;;;;;;;10.73;4.45;;;5.00;92.10;;;;;;5054316;28;20045;-88
2022/04/01 12:56:42;;;;;;;7.72;4.30;;;4.90;91.90;;;;;;5053917;28;20056;-88
2022/04/01 12:59:10;;;;;;;6.18;3.65;;;4.80;92.50;;;;;;5053447;28;20025;-89
2022/04/01 13:01:38;;;;;;;7.53;3.83;;;5.00;92.50;;;;;;5054135;28;20368;-88
2022/04/01 13:04:07;;;;;;;4.88;3.08;;;5.00;92.20;;;;;;5053495;28;20053;-89
2022/04/01 13:06:32;;;;;;;7.57;3.75;;;5.20;91.80;;;;;;5051404;28;20025;-88
2022/04/01 13:09:09;;;;;;;7.22;3.67;;;5.30;91.90;;;;;;5053578;28;20025;-88
2022/04/01 13:11:43;;;;;;;6.53;3.45;;;5.30;93.10;;;;;;5054096;28;20448;-87
2022/04/01 13:14:21;;;;;;;4.50;2.85;;;5.50;92.20;;;;;;5053996;28;20041;-88
2022/04/01 13:16:48;;;;;;;5.22;2.72;;;5.70;91.20;;;;;;5053440;28;20468;-88
2022/04/01 13:19:30;;;;;;;6.85;3.83;;;5.60;89.70;;;;;;5052489;28;20114;-88
2022/04/01 13:22:01;;;;;;;8.27;3.45;;;5.60;90.40;;;;;;5053146;28;20074;-89
2022/04/01 13:24:33;;;;;;;7.22;3.00;;;5.70;90.40;;;;;;5052590;28;20084;-89
2022/04/01 13:26:59;;;;;;;7.30;2.90;;;5.50;89.90;;;;;;5052123;28;20040;-88
2022/04/01 13:29:25;;;;;;;6.75;2.83;;;5.50;90.70;;;;;;5052399;28;20027;-89